createdAt,value
2024-02-06T00:01:54.435Z,16.51
2024-02-06T00:04:21.327Z,16.49
2024-02-06T00:06:48.159Z,16.49
2024-02-06T00:09:15.269Z,16.45
2024-02-06T00:11:41.896Z,16.43
2024-02-06T00:14:11.442Z,16.43
2024-02-06T00:16:39.022Z,16.42
2024-02-06T00:19:09.032Z,16.41
2024-02-06T00:21:35.651Z,16.39
2024-02-06T00:24:02.314Z,16.38
2024-02-06T00:26:29.028Z,16.36
2024-02-06T00:28:56.059Z,16.37
2024-02-06T00:31:23.535Z,16.34
2024-02-06T00:33:50.846Z,16.34
2024-02-06T00:36:17.557Z,16.32
2024-02-06T00:38:44.147Z,16.30
2024-02-06T00:41:12.553Z,16.27
2024-02-06T00:43:39.367Z,16.28
2024-02-06T00:46:06.102Z,16.26
2024-02-06T00:48:33.005Z,16.24
2024-02-06T00:50:59.772Z,16.22
2024-02-06T00:53:26.386Z,16.21
2024-02-06T00:55:52.951Z,16.20
2024-02-06T00:58:19.559Z,16.19
2024-02-06T01:00:46.382Z,16.19
2024-02-06T01:03:13.021Z,16.18
2024-02-06T01:05:39.592Z,16.18
2024-02-06T01:08:06.544Z,16.17
2024-02-06T01:10:33.310Z,16.17
2024-02-06T01:12:59.946Z,16.16
2024-02-06T01:15:26.504Z,16.16
2024-02-06T01:17:53.071Z,16.15
2024-02-06T01:20:19.727Z,16.14
2024-02-06T01:22:46.316Z,16.14
2024-02-06T01:25:14.162Z,16.14
2024-02-06T01:27:40.918Z,16.14
2024-02-06T01:30:08.143Z,16.13
2024-02-06T01:32:34.797Z,16.13
2024-02-06T01:35:01.524Z,16.12
2024-02-06T01:37:28.188Z,16.12
2024-02-06T01:39:54.874Z,16.12
2024-02-06T01:42:21.503Z,16.11
2024-02-06T01:44:48.074Z,16.11
2024-02-06T01:47:15.245Z,16.11
2024-02-06T01:49:44.298Z,16.11
2024-02-06T01:52:12.893Z,16.11
2024-02-06T01:54:39.470Z,16.11
2024-02-06T01:57:06.759Z,16.12
2024-02-06T01:59:33.505Z,16.12
2024-02-06T02:02:00.399Z,16.11
2024-02-06T02:04:27.309Z,16.12
2024-02-06T02:06:55.767Z,16.13
2024-02-06T02:09:22.699Z,16.12
2024-02-06T02:11:49.405Z,16.12
2024-02-06T02:14:16.310Z,16.12
2024-02-06T02:16:42.943Z,16.12
2024-02-06T02:19:09.707Z,16.11
2024-02-06T02:21:36.480Z,16.12
2024-02-06T02:24:04.930Z,16.11
2024-02-06T02:26:32.018Z,16.12
2024-02-06T02:28:59.022Z,16.11
2024-02-06T02:31:26.647Z,16.11
2024-02-06T02:33:55.145Z,16.12
2024-02-06T02:36:22.012Z,16.11
2024-02-06T02:38:48.581Z,16.10
2024-02-06T02:41:15.280Z,16.12
2024-02-06T02:43:41.944Z,16.12
2024-02-06T02:46:08.573Z,16.11
2024-02-06T02:48:35.959Z,16.11
2024-02-06T02:51:02.688Z,16.11
2024-02-06T02:53:29.297Z,16.11
2024-02-06T02:55:55.887Z,16.11
2024-02-06T02:58:22.507Z,16.11
2024-02-06T03:00:49.349Z,16.12
2024-02-06T03:03:16.022Z,16.11
2024-02-06T03:05:42.682Z,16.12
2024-02-06T03:08:10.454Z,16.12
2024-02-06T03:10:37.119Z,16.10
2024-02-06T03:13:04.164Z,16.10
2024-02-06T03:15:30.932Z,16.10
2024-02-06T03:17:57.791Z,16.11
2024-02-06T03:20:24.424Z,16.10
2024-02-06T03:22:51.192Z,16.10
2024-02-06T03:25:18.047Z,16.10
2024-02-06T03:27:46.632Z,16.10
2024-02-06T03:30:14.661Z,16.10
2024-02-06T03:32:41.503Z,16.10
2024-02-06T03:35:08.921Z,16.12
2024-02-06T03:37:36.008Z,16.11
2024-02-06T03:40:03.133Z,16.11
2024-02-06T03:42:29.715Z,16.11
2024-02-06T03:44:56.318Z,16.11
2024-02-06T03:47:22.844Z,16.13
2024-02-06T03:49:49.647Z,16.11
2024-02-06T03:52:16.404Z,16.12
2024-02-06T03:54:43.030Z,16.10
2024-02-06T03:57:10.975Z,16.11
2024-02-06T03:59:37.504Z,16.11
2024-02-06T04:02:04.544Z,16.13
2024-02-06T04:04:31.530Z,16.11
2024-02-06T04:06:58.329Z,16.12
2024-02-06T04:09:25.067Z,16.10
2024-02-06T04:11:51.818Z,16.11
2024-02-06T04:14:18.429Z,16.11
2024-02-06T04:16:45.640Z,16.12
2024-02-06T04:19:12.785Z,16.10
2024-02-06T04:21:39.715Z,16.11
2024-02-06T04:24:07.226Z,16.11
2024-02-06T04:26:33.869Z,16.11
2024-02-06T04:29:00.477Z,16.11
2024-02-06T04:31:27.099Z,16.10
2024-02-06T04:33:54.070Z,16.11
2024-02-06T04:36:22.110Z,16.10
2024-02-06T04:38:48.690Z,16.09
2024-02-06T04:41:15.255Z,16.10
2024-02-06T04:43:42.997Z,16.11
2024-02-06T04:46:10.011Z,16.10
2024-02-06T04:48:36.745Z,16.10
2024-02-06T04:51:03.353Z,16.10
2024-02-06T04:53:32.629Z,16.09
2024-02-06T04:55:59.492Z,16.10
2024-02-06T04:58:26.590Z,16.11
2024-02-06T05:00:53.305Z,16.09
2024-02-06T05:03:20.416Z,16.10
2024-02-06T05:05:47.028Z,16.09
2024-02-06T05:08:13.658Z,16.10
2024-02-06T05:10:40.988Z,16.11
2024-02-06T05:13:08.524Z,16.11
2024-02-06T05:15:35.181Z,16.11
2024-02-06T05:18:01.973Z,16.10
2024-02-06T05:20:28.709Z,16.11
2024-02-06T05:22:55.336Z,16.11
2024-02-06T05:25:24.618Z,16.11
2024-02-06T05:27:51.816Z,16.11
2024-02-06T05:30:19.548Z,16.11
2024-02-06T05:32:46.250Z,16.11
2024-02-06T05:35:13.168Z,16.11
2024-02-06T05:37:40.169Z,16.11
2024-02-06T05:40:08.311Z,16.11
2024-02-06T05:42:34.987Z,16.10
2024-02-06T05:45:01.590Z,16.10
2024-02-06T05:47:28.959Z,16.10
2024-02-06T05:49:55.881Z,16.10
2024-02-06T05:52:22.800Z,16.10
2024-02-06T05:54:49.595Z,16.11
2024-02-06T05:57:16.208Z,16.10
2024-02-06T05:59:42.852Z,16.10
2024-02-06T06:02:09.741Z,16.11
2024-02-06T06:04:36.767Z,16.09
2024-02-06T06:07:03.609Z,16.09
2024-02-06T06:09:30.602Z,16.11
2024-02-06T06:11:57.342Z,16.10
2024-02-06T06:14:23.959Z,16.11
2024-02-06T06:16:50.533Z,16.10
2024-02-06T06:19:17.221Z,16.11
2024-02-06T06:21:44.226Z,16.11
2024-02-06T06:24:11.255Z,16.10
2024-02-06T06:26:38.743Z,16.09
2024-02-06T06:29:05.817Z,16.10
2024-02-06T06:31:32.475Z,16.10
2024-02-06T06:33:59.241Z,16.10
2024-02-06T06:36:26.034Z,16.09
2024-02-06T06:38:52.605Z,16.09
2024-02-06T06:41:19.223Z,16.09
2024-02-06T06:43:46.081Z,16.09
2024-02-06T06:46:12.749Z,16.09
2024-02-06T06:48:39.577Z,16.09
2024-02-06T06:51:06.164Z,16.09
2024-02-06T06:53:32.891Z,16.08
2024-02-06T06:55:59.513Z,16.09
2024-02-06T06:58:26.153Z,16.07
2024-02-06T07:00:54.418Z,16.07
2024-02-06T07:03:21.421Z,16.07
2024-02-06T07:05:52.490Z,16.07
2024-02-06T07:08:19.245Z,16.07
2024-02-06T07:10:45.983Z,16.08
2024-02-06T07:13:12.850Z,16.07
2024-02-06T07:15:39.464Z,16.06
2024-02-06T07:18:06.385Z,16.07
2024-02-06T07:20:33.095Z,16.06
2024-02-06T07:22:59.734Z,16.06
2024-02-06T07:25:26.318Z,16.07
2024-02-06T07:27:52.981Z,16.06
2024-02-06T07:30:27.593Z,16.06
2024-02-06T07:33:00.904Z,16.06
2024-02-06T07:35:27.657Z,16.05
2024-02-06T07:37:54.292Z,16.07
2024-02-06T07:42:50.833Z,16.06
2024-02-06T07:45:17.453Z,16.06
2024-02-06T07:47:45.100Z,16.07
2024-02-06T07:52:38.480Z,16.07
2024-02-06T07:55:05.733Z,16.06
2024-02-06T07:57:32.353Z,16.06
2024-02-06T07:59:58.952Z,16.07
2024-02-06T08:02:25.758Z,16.06
2024-02-06T08:04:54.574Z,16.07
2024-02-06T08:07:21.971Z,16.06
2024-02-06T08:09:49.063Z,16.07
2024-02-06T08:12:15.664Z,16.07
2024-02-06T08:14:43.175Z,16.07
2024-02-06T08:17:09.810Z,16.06
2024-02-06T08:19:36.526Z,16.07
2024-02-06T08:22:03.216Z,16.07
2024-02-06T08:24:29.837Z,16.07
2024-02-06T08:26:56.886Z,16.07
2024-02-06T08:29:23.610Z,16.08
2024-02-06T08:31:50.843Z,16.08
2024-02-06T08:34:17.689Z,16.07
2024-02-06T08:36:44.405Z,16.08
2024-02-06T08:39:10.993Z,16.08
2024-02-06T08:41:37.626Z,16.08
2024-02-06T08:44:04.465Z,16.10
2024-02-06T08:46:31.115Z,16.09
2024-02-06T08:48:58.082Z,16.09
2024-02-06T08:51:24.775Z,16.10
2024-02-06T08:53:51.437Z,16.10
2024-02-06T08:56:18.004Z,16.11
2024-02-06T08:58:44.692Z,16.11
2024-02-06T09:01:12.471Z,16.13
2024-02-06T09:03:39.677Z,16.13
2024-02-06T09:06:07.004Z,16.14
2024-02-06T09:08:34.506Z,16.15
2024-02-06T09:11:01.228Z,16.15
2024-02-06T09:13:27.895Z,16.15
2024-02-06T09:15:54.520Z,16.17
2024-02-06T09:18:21.358Z,16.18
2024-02-06T09:20:48.360Z,16.20
2024-02-06T09:23:14.920Z,16.21
2024-02-06T09:25:44.288Z,16.23
2024-02-06T09:28:10.867Z,16.24
2024-02-06T09:30:40.792Z,16.27
2024-02-06T09:33:08.191Z,16.27
2024-02-06T09:35:34.944Z,16.28
2024-02-06T09:38:01.691Z,16.31
2024-02-06T09:40:28.392Z,16.33
2024-02-06T09:42:56.202Z,16.33
2024-02-06T09:45:23.057Z,16.35
2024-02-06T09:47:49.666Z,16.36
2024-02-06T09:50:17.644Z,16.37
2024-02-06T09:52:49.165Z,16.39
2024-02-06T09:55:16.708Z,16.40
2024-02-06T09:57:45.836Z,16.42
2024-02-06T10:00:15.667Z,16.43
2024-02-06T10:02:44.295Z,16.45
2024-02-06T10:05:17.835Z,16.47
2024-02-06T10:07:47.525Z,16.49
2024-02-06T10:10:15.663Z,16.54
2024-02-06T10:12:44.859Z,16.56
2024-02-06T10:15:20.170Z,16.57
2024-02-06T10:17:46.990Z,16.59
2024-02-06T10:20:14.390Z,16.60
2024-02-06T10:22:42.468Z,16.62
2024-02-06T10:25:12.853Z,16.63
2024-02-06T10:27:39.486Z,16.63
2024-02-06T10:30:11.208Z,16.65
2024-02-06T10:32:39.404Z,16.66
2024-02-06T10:35:09.028Z,16.68
2024-02-06T10:37:40.326Z,16.68
2024-02-06T10:40:12.666Z,16.69
2024-02-06T10:43:24.741Z,16.71
2024-02-06T10:45:28.151Z,16.72
2024-02-06T10:48:02.005Z,16.73
2024-02-06T10:50:29.499Z,16.74
2024-02-06T10:52:57.057Z,16.76
2024-02-06T10:55:24.372Z,16.77
2024-02-06T10:58:08.516Z,16.77
2024-02-06T11:00:36.754Z,16.82
2024-02-06T11:03:10.166Z,16.83
2024-02-06T11:05:45.540Z,16.84
2024-02-06T11:08:21.250Z,16.84
2024-02-06T11:10:57.102Z,16.86
2024-02-06T11:13:47.759Z,16.85
2024-02-06T11:16:19.459Z,16.86
2024-02-06T11:19:01.175Z,16.85
2024-02-06T11:21:30.049Z,16.85
2024-02-06T11:23:58.275Z,16.85
2024-02-06T11:26:24.906Z,16.85
2024-02-06T11:28:52.385Z,16.84
2024-02-06T11:31:20.730Z,16.85
2024-02-06T11:33:47.493Z,16.84
2024-02-06T11:36:17.720Z,16.84
2024-02-06T11:38:46.175Z,16.83
2024-02-06T11:41:15.567Z,16.84
2024-02-06T11:43:43.518Z,16.83
2024-02-06T11:46:10.617Z,16.83
2024-02-06T11:48:37.380Z,16.83
2024-02-06T11:51:05.678Z,16.82
2024-02-06T11:53:32.983Z,16.82
2024-02-06T11:56:01.446Z,16.82
2024-02-06T11:58:28.378Z,16.82
2024-02-06T12:00:57.258Z,16.83
2024-02-06T12:03:23.920Z,16.83
2024-02-06T12:05:51.007Z,16.83
2024-02-06T12:08:23.316Z,16.85
2024-02-06T12:10:50.834Z,16.86
2024-02-06T12:13:19.124Z,16.86
2024-02-06T12:15:46.661Z,16.85
2024-02-06T12:18:15.455Z,16.87
2024-02-06T12:20:42.427Z,16.88
2024-02-06T12:23:09.998Z,16.88
2024-02-06T12:25:42.060Z,16.88
2024-02-06T12:28:14.316Z,16.88
2024-02-06T12:30:51.057Z,16.88
2024-02-06T12:33:18.482Z,16.89
2024-02-06T12:35:46.174Z,16.89
2024-02-06T12:38:13.188Z,16.88
2024-02-06T12:40:39.910Z,16.87
2024-02-06T12:43:08.026Z,16.88
2024-02-06T12:45:36.076Z,16.87
2024-02-06T12:48:04.024Z,16.88
2024-02-06T12:50:31.243Z,16.87
2024-02-06T12:53:01.131Z,16.88
2024-02-06T12:55:30.598Z,16.87
2024-02-06T12:57:58.199Z,16.87
2024-02-06T13:00:25.739Z,16.86
2024-02-06T13:03:05.354Z,16.83
2024-02-06T13:05:35.853Z,16.85
2024-02-06T13:08:14.850Z,16.83
2024-02-06T13:10:41.640Z,16.84
2024-02-06T13:13:09.240Z,16.83
2024-02-06T13:15:37.011Z,16.85
2024-02-06T13:18:08.547Z,16.83
2024-02-06T13:20:40.993Z,16.82
2024-02-06T13:23:15.475Z,16.81
2024-02-06T13:25:42.573Z,16.81
2024-02-06T13:28:09.723Z,16.81
2024-02-06T13:30:37.934Z,16.81
2024-02-06T13:33:06.679Z,16.81
2024-02-06T13:35:33.627Z,16.81
2024-02-06T13:38:04.978Z,16.80
2024-02-06T13:40:31.997Z,16.79
2024-02-06T13:43:01.640Z,16.77
2024-02-06T13:45:28.309Z,16.77
2024-02-06T13:47:55.184Z,16.76
2024-02-06T13:50:23.074Z,16.75
2024-02-06T13:52:50.125Z,16.75
2024-02-06T13:55:17.215Z,16.74
2024-02-06T13:57:44.091Z,16.74
2024-02-06T14:00:14.354Z,16.72
2024-02-06T14:02:42.383Z,16.72
2024-02-06T14:05:09.544Z,16.71
2024-02-06T14:07:36.243Z,16.71
2024-02-06T14:10:03.493Z,16.71
2024-02-06T14:12:36.398Z,16.70
2024-02-06T14:15:10.869Z,16.70
2024-02-06T14:17:38.764Z,16.70
2024-02-06T14:22:34.445Z,16.69
2024-02-06T14:25:01.979Z,16.70
2024-02-06T14:27:28.582Z,16.70
2024-02-06T14:29:55.184Z,16.70
2024-02-06T14:32:21.848Z,16.71
2024-02-06T14:34:49.190Z,16.71
2024-02-06T14:37:16.078Z,16.70
2024-02-06T14:39:43.101Z,16.70
2024-02-06T14:42:09.845Z,16.70
2024-02-06T14:44:43.834Z,16.70
2024-02-06T14:47:14.198Z,16.69
2024-02-06T14:49:40.920Z,16.69
2024-02-06T14:52:07.696Z,16.69
2024-02-06T14:54:34.394Z,16.68
2024-02-06T14:57:00.969Z,16.69
2024-02-06T14:59:28.834Z,16.69
2024-02-06T15:01:55.492Z,16.67
2024-02-06T15:04:23.298Z,16.67
2024-02-06T15:06:49.938Z,16.68
2024-02-06T15:09:16.865Z,16.67
2024-02-06T15:11:43.796Z,16.66
2024-02-06T15:14:10.475Z,16.67
2024-02-06T15:16:41.471Z,16.66
2024-02-06T15:19:09.733Z,16.67
2024-02-06T15:21:36.804Z,16.66
2024-02-06T15:24:03.699Z,16.66
2024-02-06T15:26:34.986Z,16.66
2024-02-06T15:29:01.799Z,16.66
2024-02-06T15:31:28.644Z,16.66
2024-02-06T15:33:55.485Z,16.64
2024-02-06T15:36:22.168Z,16.64
2024-02-06T15:38:48.967Z,16.64
2024-02-06T15:41:17.284Z,16.65
2024-02-06T15:43:44.270Z,16.64
2024-02-06T15:46:11.978Z,16.63
2024-02-06T15:48:47.966Z,16.62
2024-02-06T15:51:15.283Z,16.63
2024-02-06T15:53:42.154Z,16.62
2024-02-06T15:56:09.287Z,16.62
2024-02-06T15:58:36.604Z,16.62
2024-02-06T16:01:03.544Z,16.61
2024-02-06T16:03:30.225Z,16.61
2024-02-06T16:05:57.448Z,16.61
2024-02-06T16:08:24.078Z,16.61
2024-02-06T16:10:50.862Z,16.61
2024-02-06T16:13:19.867Z,16.60
2024-02-06T16:15:48.673Z,16.59
2024-02-06T16:18:16.624Z,16.59
2024-02-06T16:20:43.605Z,16.58
2024-02-06T16:23:10.487Z,16.59
2024-02-06T16:25:37.137Z,16.57
2024-02-06T16:28:03.967Z,16.58
2024-02-06T16:30:30.593Z,16.57
2024-02-06T16:32:57.237Z,16.56
2024-02-06T16:35:23.892Z,16.57
2024-02-06T16:37:50.665Z,16.57
2024-02-06T16:40:17.521Z,16.56
2024-02-06T16:42:45.133Z,16.57
2024-02-06T16:45:12.767Z,16.55
2024-02-06T16:47:39.646Z,16.56
2024-02-06T16:50:07.088Z,16.54
2024-02-06T16:52:33.891Z,16.54
2024-02-06T16:55:00.897Z,16.54
2024-02-06T16:57:27.517Z,16.53
2024-02-06T16:59:54.058Z,16.53
2024-02-06T17:02:21.158Z,16.54
2024-02-06T17:04:47.895Z,16.54
2024-02-06T17:07:14.802Z,16.53
2024-02-06T17:09:41.497Z,16.53
2024-02-06T17:12:08.126Z,16.53
2024-02-06T17:14:35.040Z,16.53
2024-02-06T17:17:01.654Z,16.52
2024-02-06T17:19:28.348Z,16.53
2024-02-06T17:21:55.130Z,16.53
2024-02-06T17:24:21.736Z,16.52
2024-02-06T17:26:48.460Z,16.52
2024-02-06T17:29:15.101Z,16.53
2024-02-06T17:31:41.923Z,16.52
2024-02-06T17:34:08.780Z,16.54
2024-02-06T17:36:39.669Z,16.52
2024-02-06T17:39:06.786Z,16.53
2024-02-06T17:41:33.401Z,16.52
2024-02-06T17:44:00.053Z,16.52
2024-02-06T17:46:26.835Z,16.52
2024-02-06T17:48:53.470Z,16.52
2024-02-06T17:51:20.035Z,16.52
2024-02-06T17:53:46.606Z,16.52
2024-02-06T17:56:13.168Z,16.53
2024-02-06T17:58:41.801Z,16.52
2024-02-06T18:01:09.743Z,16.53
2024-02-06T18:03:36.437Z,16.52
2024-02-06T18:06:03.839Z,16.52
2024-02-06T18:08:30.667Z,16.51
2024-02-06T18:10:57.484Z,16.52
2024-02-06T18:13:24.214Z,16.52
2024-02-06T18:15:50.858Z,16.51
2024-02-06T18:18:17.640Z,16.51
2024-02-06T18:20:44.268Z,16.51
2024-02-06T18:23:10.876Z,16.50
2024-02-06T18:25:37.530Z,16.50
2024-02-06T18:28:04.457Z,16.50
2024-02-06T18:30:31.089Z,16.51
2024-02-06T18:32:57.692Z,16.51
2024-02-06T18:35:24.392Z,16.49
2024-02-06T18:37:51.327Z,16.48
2024-02-06T18:40:18.189Z,16.48
2024-02-06T18:42:44.886Z,16.49
2024-02-06T18:45:11.563Z,16.49
2024-02-06T18:47:38.146Z,16.48
2024-02-06T18:50:05.105Z,16.48
2024-02-06T18:52:31.781Z,16.48
2024-02-06T18:54:58.426Z,16.48
2024-02-06T18:57:25.115Z,16.47
2024-02-06T18:59:51.715Z,16.48
2024-02-06T19:02:18.316Z,16.46
2024-02-06T19:04:45.032Z,16.48
2024-02-06T19:07:11.881Z,16.47
2024-02-06T19:09:38.732Z,16.46
2024-02-06T19:12:05.852Z,16.46
2024-02-06T19:14:33.140Z,16.45
2024-02-06T19:16:59.676Z,16.46
2024-02-06T19:19:26.490Z,16.45
2024-02-06T19:21:53.347Z,16.44
2024-02-06T19:24:20.079Z,16.44
2024-02-06T19:26:46.782Z,16.43
2024-02-06T19:29:13.602Z,16.43
2024-02-06T19:31:41.470Z,16.42
2024-02-06T19:34:08.734Z,16.42
2024-02-06T19:36:36.055Z,16.42
2024-02-06T19:39:03.944Z,16.42
2024-02-06T19:41:31.399Z,16.42
2024-02-06T19:43:59.491Z,16.41
2024-02-06T19:46:26.975Z,16.41
2024-02-06T19:48:54.511Z,16.41
2024-02-06T19:51:23.169Z,16.41
2024-02-06T19:53:50.014Z,16.40
2024-02-06T19:56:17.631Z,16.40
2024-02-06T19:58:44.440Z,16.39
2024-02-06T20:01:21.735Z,16.38
2024-02-06T20:03:48.581Z,16.40
2024-02-06T20:06:17.979Z,16.39
2024-02-06T20:08:45.999Z,16.38
2024-02-06T20:11:13.001Z,16.38
2024-02-06T20:13:39.914Z,16.38
2024-02-06T20:16:07.064Z,16.38
2024-02-06T20:18:33.833Z,16.38
2024-02-06T20:21:00.895Z,16.37
2024-02-06T20:23:29.430Z,16.38
2024-02-06T20:25:56.326Z,16.38
2024-02-06T20:28:23.061Z,16.37
2024-02-06T20:30:53.370Z,16.36
2024-02-06T20:33:20.012Z,16.36
2024-02-06T20:35:46.698Z,16.37
2024-02-06T20:38:13.281Z,16.37
2024-02-06T20:40:39.834Z,16.37
2024-02-06T20:43:06.601Z,16.37
2024-02-06T20:45:34.852Z,16.37
2024-02-06T20:48:04.761Z,16.37
2024-02-06T20:50:32.416Z,16.37
2024-02-06T20:52:59.092Z,16.37
2024-02-06T20:55:25.787Z,16.37
2024-02-06T20:57:52.520Z,16.37
2024-02-06T21:00:19.505Z,16.36
2024-02-06T21:02:46.778Z,16.37
2024-02-06T21:05:13.571Z,16.36
2024-02-06T21:07:40.369Z,16.36
2024-02-06T21:10:08.419Z,16.37
2024-02-06T21:12:35.131Z,16.37
2024-02-06T21:15:01.945Z,16.37
2024-02-06T21:17:30.883Z,16.37
2024-02-06T21:19:58.147Z,16.36
2024-02-06T21:22:24.919Z,16.37
2024-02-06T21:24:51.594Z,16.36
2024-02-06T21:27:18.192Z,16.37
2024-02-06T21:29:44.831Z,16.36
2024-02-06T21:32:11.455Z,16.36
2024-02-06T21:34:39.581Z,16.36
2024-02-06T21:37:06.247Z,16.37
2024-02-06T21:39:34.157Z,16.36
2024-02-06T21:42:01.206Z,16.36
2024-02-06T21:44:27.809Z,16.36
2024-02-06T21:46:54.556Z,16.37
2024-02-06T21:49:21.303Z,16.36
2024-02-06T21:51:48.080Z,16.35
2024-02-06T21:54:14.674Z,16.35
2024-02-06T21:56:42.045Z,16.36
2024-02-06T21:59:08.659Z,16.36
2024-02-06T22:01:35.331Z,16.36
2024-02-06T22:04:02.125Z,16.37
2024-02-06T22:06:28.798Z,16.36
2024-02-06T22:08:55.643Z,16.35
2024-02-06T22:11:24.232Z,16.35
2024-02-06T22:13:50.915Z,16.35
2024-02-06T22:16:17.562Z,16.34
2024-02-06T22:18:44.178Z,16.33
2024-02-06T22:21:11.068Z,16.31
2024-02-06T22:23:37.783Z,16.29
2024-02-06T22:26:04.486Z,16.28
2024-02-06T22:28:31.739Z,16.28
2024-02-06T22:30:58.364Z,16.27
2024-02-06T22:33:25.100Z,16.27
2024-02-06T22:35:51.781Z,16.24
2024-02-06T22:38:18.493Z,16.24
2024-02-06T22:40:46.445Z,16.24
2024-02-06T22:43:13.542Z,16.22
2024-02-06T22:45:40.119Z,16.21
2024-02-06T22:48:07.186Z,16.21
2024-02-06T22:50:34.560Z,16.19
2024-02-06T22:53:01.125Z,16.21
2024-02-06T22:55:27.723Z,16.19
2024-02-06T22:57:54.276Z,16.19
2024-02-06T23:00:30.290Z,16.18
2024-02-06T23:02:58.579Z,16.17
2024-02-06T23:05:27.103Z,16.17
2024-02-06T23:07:54.776Z,16.16
2024-02-06T23:10:21.591Z,16.15
2024-02-06T23:12:49.286Z,16.14
2024-02-06T23:15:16.993Z,16.13
2024-02-06T23:17:44.755Z,16.13
2024-02-06T23:20:11.824Z,16.11
2024-02-06T23:22:38.982Z,16.11
2024-02-06T23:25:06.735Z,16.11
2024-02-06T23:27:33.379Z,16.09
2024-02-06T23:30:00.721Z,16.09
2024-02-06T23:32:27.894Z,16.09
2024-02-06T23:34:56.882Z,16.07
2024-02-06T23:37:26.167Z,16.07
2024-02-06T23:39:53.608Z,16.06
2024-02-06T23:42:20.253Z,16.06
2024-02-06T23:44:46.889Z,16.06
2024-02-06T23:47:13.920Z,16.06
2024-02-06T23:49:40.940Z,16.06
2024-02-06T23:52:07.703Z,16.04
2024-02-06T23:54:35.393Z,16.04
2024-02-06T23:57:02.028Z,16.05
2024-02-06T23:59:29.159Z,16.04
